sensor_id;sensor_type;location;lat;lon;timestamp;temperature;humidity
3256;DHT22;1640;48.504;9.224;2023-02-15T00:01:37;-0.70;99.90
3256;DHT22;1640;48.504;9.224;2023-02-15T00:04:05;-0.70;99.90
3256;DHT22;1640;48.504;9.224;2023-02-15T00:06:33;-0.70;99.90
3256;DHT22;1640;48.504;9.224;2023-02-15T00:09:03;-0.70;99.90
3256;DHT22;1640;48.504;9.224;2023-02-15T00:11:31;-0.80;99.90
3256;DHT22;1640;48.504;9.224;2023-02-15T00:14:10;-0.80;99.90
3256;DHT22;1640;48.504;9.224;2023-02-15T00:16:38;-0.80;99.90
3256;DHT22;1640;48.504;9.224;2023-02-15T00:19:07;-0.80;99.90
3256;DHT22;1640;48.504;9.224;2023-02-15T00:21:36;-0.80;99.90
3256;DHT22;1640;48.504;9.224;2023-02-15T00:24:06;-0.90;99.90
3256;DHT22;1640;48.504;9.224;2023-02-15T00:26:34;-0.90;99.90
3256;DHT22;1640;48.504;9.224;2023-02-15T00:29:02;-0.90;99.90
3256;DHT22;1640;48.504;9.224;2023-02-15T00:31:31;-0.90;99.90
3256;DHT22;1640;48.504;9.224;2023-02-15T00:34:01;-0.90;99.90
3256;DHT22;1640;48.504;9.224;2023-02-15T00:36:29;-1.00;99.90
3256;DHT22;1640;48.504;9.224;2023-02-15T00:38:57;-1.00;99.90
3256;DHT22;1640;48.504;9.224;2023-02-15T00:41:26;-1.00;99.90
3256;DHT22;1640;48.504;9.224;2023-02-15T00:43:53;-1.00;99.90
3256;DHT22;1640;48.504;9.224;2023-02-15T00:46:20;-1.00;99.90
3256;DHT22;1640;48.504;9.224;2023-02-15T00:48:48;-1.00;99.90
3256;DHT22;1640;48.504;9.224;2023-02-15T00:51:17;-1.00;99.90
3256;DHT22;1640;48.504;9.224;2023-02-15T00:53:46;-1.00;99.90
3256;DHT22;1640;48.504;9.224;2023-02-15T00:56:14;-1.00;99.90
3256;DHT22;1640;48.504;9.224;2023-02-15T00:58:43;-1.10;99.90
3256;DHT22;1640;48.504;9.224;2023-02-15T01:01:13;-1.10;99.90
3256;DHT22;1640;48.504;9.224;2023-02-15T01:03:41;-1.10;99.90
3256;DHT22;1640;48.504;9.224;2023-02-15T01:06:09;-1.10;99.90
3256;DHT22;1640;48.504;9.224;2023-02-15T01:08:37;-1.10;99.90
3256;DHT22;1640;48.504;9.224;2023-02-15T01:11:05;-1.10;99.90
3256;DHT22;1640;48.504;9.224;2023-02-15T01:13:33;-1.20;99.90
3256;DHT22;1640;48.504;9.224;2023-02-15T01:16:03;-1.20;99.90
3256;DHT22;1640;48.504;9.224;2023-02-15T01:18:31;-1.10;99.90
3256;DHT22;1640;48.504;9.224;2023-02-15T01:20:59;-1.10;99.90
3256;DHT22;1640;48.504;9.224;2023-02-15T01:23:26;-1.20;99.90
3256;DHT22;1640;48.504;9.224;2023-02-15T01:25:54;-1.20;99.90
3256;DHT22;1640;48.504;9.224;2023-02-15T01:28:21;-1.20;99.90
3256;DHT22;1640;48.504;9.224;2023-02-15T01:30:49;-1.30;99.90
3256;DHT22;1640;48.504;9.224;2023-02-15T01:33:18;-1.20;99.90
3256;DHT22;1640;48.504;9.224;2023-02-15T01:35:45;-1.20;99.90
3256;DHT22;1640;48.504;9.224;2023-02-15T01:38:13;-1.20;99.90
3256;DHT22;1640;48.504;9.224;2023-02-15T01:40:41;-1.20;99.90
3256;DHT22;1640;48.504;9.224;2023-02-15T01:43:10;-1.30;99.90
3256;DHT22;1640;48.504;9.224;2023-02-15T01:45:38;-1.30;99.90
3256;DHT22;1640;48.504;9.224;2023-02-15T01:48:14;-1.30;99.90
3256;DHT22;1640;48.504;9.224;2023-02-15T01:50:50;-1.30;99.90
3256;DHT22;1640;48.504;9.224;2023-02-15T01:53:22;-1.40;99.90
3256;DHT22;1640;48.504;9.224;2023-02-15T01:55:55;-1.40;99.90
3256;DHT22;1640;48.504;9.224;2023-02-15T01:58:25;-1.40;99.90
3256;DHT22;1640;48.504;9.224;2023-02-15T02:00:57;-1.30;99.90
3256;DHT22;1640;48.504;9.224;2023-02-15T02:03:32;-1.30;99.90
3256;DHT22;1640;48.504;9.224;2023-02-15T02:06:04;-1.30;99.90
3256;DHT22;1640;48.504;9.224;2023-02-15T02:08:32;-1.30;99.90
3256;DHT22;1640;48.504;9.224;2023-02-15T02:11:00;-1.30;99.90
3256;DHT22;1640;48.504;9.224;2023-02-15T02:13:27;-1.30;99.90
3256;DHT22;1640;48.504;9.224;2023-02-15T02:16:00;-1.30;99.90
3256;DHT22;1640;48.504;9.224;2023-02-15T02:18:38;-1.30;99.90
3256;DHT22;1640;48.504;9.224;2023-02-15T02:21:42;-1.40;99.90
3256;DHT22;1640;48.504;9.224;2023-02-15T02:24:39;-1.40;99.90
3256;DHT22;1640;48.504;9.224;2023-02-15T02:27:28;-1.50;99.90
3256;DHT22;1640;48.504;9.224;2023-02-15T02:36:02;-1.60;99.90
3256;DHT22;1640;48.504;9.224;2023-02-15T02:38:42;-1.70;99.90
3256;DHT22;1640;48.504;9.224;2023-02-15T02:41:17;-1.70;99.90
3256;DHT22;1640;48.504;9.224;2023-02-15T02:43:51;-1.70;99.90
3256;DHT22;1640;48.504;9.224;2023-02-15T02:46:26;-1.70;99.90
3256;DHT22;1640;48.504;9.224;2023-02-15T02:48:56;-1.70;99.90
3256;DHT22;1640;48.504;9.224;2023-02-15T02:51:24;-1.70;99.90
3256;DHT22;1640;48.504;9.224;2023-02-15T02:53:53;-1.70;99.90
3256;DHT22;1640;48.504;9.224;2023-02-15T02:56:28;-1.80;99.90
3256;DHT22;1640;48.504;9.224;2023-02-15T02:58:59;-1.80;99.90
3256;DHT22;1640;48.504;9.224;2023-02-15T03:01:32;-1.70;99.90
3256;DHT22;1640;48.504;9.224;2023-02-15T03:04:05;-1.70;99.90
3256;DHT22;1640;48.504;9.224;2023-02-15T03:06:38;-1.70;99.90
3256;DHT22;1640;48.504;9.224;2023-02-15T03:09:10;-1.70;99.90
3256;DHT22;1640;48.504;9.224;2023-02-15T03:11:42;-1.70;99.90
3256;DHT22;1640;48.504;9.224;2023-02-15T03:14:11;-1.70;99.90
3256;DHT22;1640;48.504;9.224;2023-02-15T03:16:40;-1.70;99.90
3256;DHT22;1640;48.504;9.224;2023-02-15T03:19:15;-1.70;99.90
3256;DHT22;1640;48.504;9.224;2023-02-15T03:21:47;-1.70;99.90
3256;DHT22;1640;48.504;9.224;2023-02-15T03:24:26;-1.70;99.90
3256;DHT22;1640;48.504;9.224;2023-02-15T03:26:56;-1.70;99.90
3256;DHT22;1640;48.504;9.224;2023-02-15T03:29:26;-1.60;99.90
3256;DHT22;1640;48.504;9.224;2023-02-15T03:31:57;-1.70;99.90
3256;DHT22;1640;48.504;9.224;2023-02-15T03:34:28;-1.70;99.90
3256;DHT22;1640;48.504;9.224;2023-02-15T03:37:00;-1.70;99.90
3256;DHT22;1640;48.504;9.224;2023-02-15T03:39:32;-1.70;99.90
3256;DHT22;1640;48.504;9.224;2023-02-15T03:42:07;-1.70;99.90
3256;DHT22;1640;48.504;9.224;2023-02-15T03:44:50;-1.60;99.90
3256;DHT22;1640;48.504;9.224;2023-02-15T03:47:22;-1.60;99.90
3256;DHT22;1640;48.504;9.224;2023-02-15T03:49:55;-1.70;99.90
3256;DHT22;1640;48.504;9.224;2023-02-15T03:52:26;-1.70;99.90
3256;DHT22;1640;48.504;9.224;2023-02-15T03:54:55;-1.70;99.90
3256;DHT22;1640;48.504;9.224;2023-02-15T03:57:24;-1.80;99.90
3256;DHT22;1640;48.504;9.224;2023-02-15T04:00:13;-1.80;99.90
3256;DHT22;1640;48.504;9.224;2023-02-15T04:03:12;-1.80;99.90
3256;DHT22;1640;48.504;9.224;2023-02-15T04:05:45;-1.80;99.90
3256;DHT22;1640;48.504;9.224;2023-02-15T04:08:13;-1.80;99.90
3256;DHT22;1640;48.504;9.224;2023-02-15T04:10:40;-1.90;99.90
3256;DHT22;1640;48.504;9.224;2023-02-15T04:13:19;-1.80;99.90
3256;DHT22;1640;48.504;9.224;2023-02-15T04:15:46;-1.90;99.90
3256;DHT22;1640;48.504;9.224;2023-02-15T04:18:32;-1.90;99.90
3256;DHT22;1640;48.504;9.224;2023-02-15T04:21:20;-1.90;99.90
3256;DHT22;1640;48.504;9.224;2023-02-15T04:24:05;-1.90;99.90
3256;DHT22;1640;48.504;9.224;2023-02-15T04:26:50;-1.90;99.90
3256;DHT22;1640;48.504;9.224;2023-02-15T04:29:20;-2.00;99.90
3256;DHT22;1640;48.504;9.224;2023-02-15T04:31:47;-2.10;99.90
3256;DHT22;1640;48.504;9.224;2023-02-15T04:34:15;-2.10;99.90
3256;DHT22;1640;48.504;9.224;2023-02-15T04:36:44;-2.10;99.90
3256;DHT22;1640;48.504;9.224;2023-02-15T04:39:13;-2.10;99.90
3256;DHT22;1640;48.504;9.224;2023-02-15T04:41:41;-2.10;99.90
3256;DHT22;1640;48.504;9.224;2023-02-15T04:44:08;-2.10;99.90
3256;DHT22;1640;48.504;9.224;2023-02-15T04:46:36;-2.20;99.90
3256;DHT22;1640;48.504;9.224;2023-02-15T04:49:03;-2.20;99.90
3256;DHT22;1640;48.504;9.224;2023-02-15T04:51:31;-2.20;99.90
3256;DHT22;1640;48.504;9.224;2023-02-15T04:54:00;-2.20;99.90
3256;DHT22;1640;48.504;9.224;2023-02-15T04:56:27;-2.30;99.90
3256;DHT22;1640;48.504;9.224;2023-02-15T04:58:56;-2.30;99.90
3256;DHT22;1640;48.504;9.224;2023-02-15T05:01:23;-2.30;99.90
3256;DHT22;1640;48.504;9.224;2023-02-15T05:03:50;-2.30;99.90
3256;DHT22;1640;48.504;9.224;2023-02-15T05:06:18;-2.30;99.90
3256;DHT22;1640;48.504;9.224;2023-02-15T05:08:45;-2.30;99.90
3256;DHT22;1640;48.504;9.224;2023-02-15T05:11:14;-2.30;99.90
3256;DHT22;1640;48.504;9.224;2023-02-15T05:13:41;-2.30;99.90
3256;DHT22;1640;48.504;9.224;2023-02-15T05:16:09;-2.30;99.90
3256;DHT22;1640;48.504;9.224;2023-02-15T05:18:36;-2.30;99.90
3256;DHT22;1640;48.504;9.224;2023-02-15T05:21:04;-2.30;99.90
3256;DHT22;1640;48.504;9.224;2023-02-15T05:23:31;-2.20;99.90
3256;DHT22;1640;48.504;9.224;2023-02-15T05:25:58;-2.30;99.90
3256;DHT22;1640;48.504;9.224;2023-02-15T05:28:45;-2.20;99.90
3256;DHT22;1640;48.504;9.224;2023-02-15T05:31:14;-2.20;99.90
3256;DHT22;1640;48.504;9.224;2023-02-15T05:33:42;-2.30;99.90
3256;DHT22;1640;48.504;9.224;2023-02-15T05:36:10;-2.40;99.90
3256;DHT22;1640;48.504;9.224;2023-02-15T05:38:38;-2.40;99.90
3256;DHT22;1640;48.504;9.224;2023-02-15T05:41:06;-2.40;99.90
3256;DHT22;1640;48.504;9.224;2023-02-15T05:43:33;-2.40;99.90
3256;DHT22;1640;48.504;9.224;2023-02-15T05:46:03;-2.40;99.90
3256;DHT22;1640;48.504;9.224;2023-02-15T05:48:31;-2.40;99.90
3256;DHT22;1640;48.504;9.224;2023-02-15T05:51:00;-2.40;99.90
3256;DHT22;1640;48.504;9.224;2023-02-15T05:53:29;-2.40;99.90
3256;DHT22;1640;48.504;9.224;2023-02-15T05:55:57;-2.40;99.90
3256;DHT22;1640;48.504;9.224;2023-02-15T05:58:26;-2.40;99.90
3256;DHT22;1640;48.504;9.224;2023-02-15T06:00:53;-2.40;99.90
3256;DHT22;1640;48.504;9.224;2023-02-15T06:03:23;-2.30;99.90
3256;DHT22;1640;48.504;9.224;2023-02-15T06:05:51;-2.40;99.90
3256;DHT22;1640;48.504;9.224;2023-02-15T06:08:19;-2.50;99.90
3256;DHT22;1640;48.504;9.224;2023-02-15T06:10:47;-2.50;99.90
3256;DHT22;1640;48.504;9.224;2023-02-15T06:13:14;-2.40;99.90
3256;DHT22;1640;48.504;9.224;2023-02-15T06:15:42;-2.50;99.90
3256;DHT22;1640;48.504;9.224;2023-02-15T06:18:09;-2.50;99.90
3256;DHT22;1640;48.504;9.224;2023-02-15T06:20:38;-2.50;99.90
3256;DHT22;1640;48.504;9.224;2023-02-15T06:23:05;-2.40;99.90
3256;DHT22;1640;48.504;9.224;2023-02-15T06:25:33;-2.40;99.90
3256;DHT22;1640;48.504;9.224;2023-02-15T06:28:00;-2.40;99.90
3256;DHT22;1640;48.504;9.224;2023-02-15T06:30:28;-2.40;99.90
3256;DHT22;1640;48.504;9.224;2023-02-15T06:32:55;-2.40;99.90
3256;DHT22;1640;48.504;9.224;2023-02-15T06:35:23;-2.40;99.90
3256;DHT22;1640;48.504;9.224;2023-02-15T06:37:52;-2.30;99.90
3256;DHT22;1640;48.504;9.224;2023-02-15T06:40:19;-2.30;99.90
3256;DHT22;1640;48.504;9.224;2023-02-15T06:42:47;-2.30;99.90
3256;DHT22;1640;48.504;9.224;2023-02-15T06:45:14;-2.20;99.90
3256;DHT22;1640;48.504;9.224;2023-02-15T06:47:42;-2.20;99.90
3256;DHT22;1640;48.504;9.224;2023-02-15T06:50:10;-2.10;99.90
3256;DHT22;1640;48.504;9.224;2023-02-15T06:52:38;-2.10;99.90
3256;DHT22;1640;48.504;9.224;2023-02-15T06:55:07;-2.10;99.90
3256;DHT22;1640;48.504;9.224;2023-02-15T06:57:34;-2.10;99.90
3256;DHT22;1640;48.504;9.224;2023-02-15T07:00:03;-2.10;99.90
3256;DHT22;1640;48.504;9.224;2023-02-15T07:02:32;-2.10;99.90
3256;DHT22;1640;48.504;9.224;2023-02-15T07:04:59;-2.10;99.90
3256;DHT22;1640;48.504;9.224;2023-02-15T07:07:27;-2.10;99.90
3256;DHT22;1640;48.504;9.224;2023-02-15T07:09:54;-2.10;99.90
3256;DHT22;1640;48.504;9.224;2023-02-15T07:12:23;-2.10;99.90
3256;DHT22;1640;48.504;9.224;2023-02-15T07:15:11;-2.10;99.90
3256;DHT22;1640;48.504;9.224;2023-02-15T07:17:40;-2.00;99.90
3256;DHT22;1640;48.504;9.224;2023-02-15T07:20:11;-2.00;99.90
3256;DHT22;1640;48.504;9.224;2023-02-15T07:22:39;-2.00;99.90
3256;DHT22;1640;48.504;9.224;2023-02-15T07:25:08;-1.90;99.90
3256;DHT22;1640;48.504;9.224;2023-02-15T07:27:37;-1.90;99.90
3256;DHT22;1640;48.504;9.224;2023-02-15T07:30:07;-1.80;99.90
3256;DHT22;1640;48.504;9.224;2023-02-15T07:32:35;-1.70;99.90
3256;DHT22;1640;48.504;9.224;2023-02-15T07:35:02;-1.70;99.90
3256;DHT22;1640;48.504;9.224;2023-02-15T07:37:29;-1.70;99.90
3256;DHT22;1640;48.504;9.224;2023-02-15T07:39:57;-1.60;99.90
3256;DHT22;1640;48.504;9.224;2023-02-15T07:42:25;-1.50;99.90
3256;DHT22;1640;48.504;9.224;2023-02-15T07:44:53;-1.40;99.90
3256;DHT22;1640;48.504;9.224;2023-02-15T07:47:21;-1.30;99.90
3256;DHT22;1640;48.504;9.224;2023-02-15T07:49:48;-1.30;99.90
3256;DHT22;1640;48.504;9.224;2023-02-15T07:52:16;-1.20;99.90
3256;DHT22;1640;48.504;9.224;2023-02-15T07:54:44;-1.10;99.90
3256;DHT22;1640;48.504;9.224;2023-02-15T07:57:11;-1.10;99.90
3256;DHT22;1640;48.504;9.224;2023-02-15T07:59:38;-1.00;99.90
3256;DHT22;1640;48.504;9.224;2023-02-15T08:02:08;-0.90;99.90
3256;DHT22;1640;48.504;9.224;2023-02-15T08:04:36;-0.70;99.90
3256;DHT22;1640;48.504;9.224;2023-02-15T08:07:03;-0.60;99.90
3256;DHT22;1640;48.504;9.224;2023-02-15T08:09:31;-0.50;99.90
3256;DHT22;1640;48.504;9.224;2023-02-15T08:11:58;-0.30;99.90
3256;DHT22;1640;48.504;9.224;2023-02-15T08:14:27;-0.30;99.90
3256;DHT22;1640;48.504;9.224;2023-02-15T08:16:58;-0.20;99.90
3256;DHT22;1640;48.504;9.224;2023-02-15T08:19:31;-0.10;99.90
3256;DHT22;1640;48.504;9.224;2023-02-15T08:22:00;0.10;99.90
3256;DHT22;1640;48.504;9.224;2023-02-15T08:24:29;0.20;99.90
3256;DHT22;1640;48.504;9.224;2023-02-15T08:26:57;0.30;99.90
3256;DHT22;1640;48.504;9.224;2023-02-15T08:29:27;0.40;99.90
3256;DHT22;1640;48.504;9.224;2023-02-15T08:31:56;0.50;99.90
3256;DHT22;1640;48.504;9.224;2023-02-15T08:34:24;0.50;99.90
3256;DHT22;1640;48.504;9.224;2023-02-15T08:36:53;0.60;99.90
3256;DHT22;1640;48.504;9.224;2023-02-15T08:39:21;0.70;99.90
3256;DHT22;1640;48.504;9.224;2023-02-15T08:41:49;0.80;99.90
3256;DHT22;1640;48.504;9.224;2023-02-15T08:44:17;0.90;99.90
3256;DHT22;1640;48.504;9.224;2023-02-15T08:46:47;1.00;99.90
3256;DHT22;1640;48.504;9.224;2023-02-15T08:49:17;1.10;99.90
3256;DHT22;1640;48.504;9.224;2023-02-15T08:51:45;1.10;99.90
3256;DHT22;1640;48.504;9.224;2023-02-15T08:54:16;1.20;99.90
3256;DHT22;1640;48.504;9.224;2023-02-15T08:56:44;1.20;99.90
3256;DHT22;1640;48.504;9.224;2023-02-15T08:59:13;1.30;99.90
3256;DHT22;1640;48.504;9.224;2023-02-15T09:01:42;1.30;99.90
3256;DHT22;1640;48.504;9.224;2023-02-15T09:04:10;1.30;99.90
3256;DHT22;1640;48.504;9.224;2023-02-15T09:06:39;1.40;99.90
3256;DHT22;1640;48.504;9.224;2023-02-15T09:09:07;1.50;99.90
3256;DHT22;1640;48.504;9.224;2023-02-15T09:11:38;1.50;99.90
3256;DHT22;1640;48.504;9.224;2023-02-15T09:14:07;1.60;99.90
3256;DHT22;1640;48.504;9.224;2023-02-15T09:16:36;1.70;99.90
3256;DHT22;1640;48.504;9.224;2023-02-15T09:19:05;1.80;99.90
3256;DHT22;1640;48.504;9.224;2023-02-15T09:21:33;1.90;99.90
3256;DHT22;1640;48.504;9.224;2023-02-15T09:24:04;2.00;99.90
3256;DHT22;1640;48.504;9.224;2023-02-15T09:26:33;2.10;99.90
3256;DHT22;1640;48.504;9.224;2023-02-15T09:29:03;2.20;99.90
3256;DHT22;1640;48.504;9.224;2023-02-15T09:31:32;2.30;99.90
3256;DHT22;1640;48.504;9.224;2023-02-15T09:34:01;2.40;99.90
3256;DHT22;1640;48.504;9.224;2023-02-15T09:36:30;2.60;99.90
3256;DHT22;1640;48.504;9.224;2023-02-15T09:39:01;2.70;99.90
3256;DHT22;1640;48.504;9.224;2023-02-15T09:44:38;2.90;99.90
3256;DHT22;1640;48.504;9.224;2023-02-15T09:47:28;3.00;99.90
3256;DHT22;1640;48.504;9.224;2023-02-15T09:50:06;3.10;0.50
3256;DHT22;1640;48.504;9.224;2023-02-15T09:52:48;3.30;4.60
3256;DHT22;1640;48.504;9.224;2023-02-15T09:55:29;3.40;11.70
3256;DHT22;1640;48.504;9.224;2023-02-15T09:58:10;3.50;15.50
3256;DHT22;1640;48.504;9.224;2023-02-15T10:00:48;3.70;16.20
3256;DHT22;1640;48.504;9.224;2023-02-15T10:03:41;3.80;16.10
3256;DHT22;1640;48.504;9.224;2023-02-15T10:06:37;4.00;11.60
3256;DHT22;1640;48.504;9.224;2023-02-15T10:09:22;4.20;15.50
3256;DHT22;1640;48.504;9.224;2023-02-15T10:15:24;4.40;28.50
3256;DHT22;1640;48.504;9.224;2023-02-15T10:18:10;4.60;33.50
3256;DHT22;1640;48.504;9.224;2023-02-15T10:20:51;4.80;39.50
3256;DHT22;1640;48.504;9.224;2023-02-15T10:23:36;5.10;44.00
3256;DHT22;1640;48.504;9.224;2023-02-15T10:26:13;5.20;45.60
3256;DHT22;1640;48.504;9.224;2023-02-15T10:28:46;5.30;54.00
3256;DHT22;1640;48.504;9.224;2023-02-15T10:31:22;5.40;55.80
3256;DHT22;1640;48.504;9.224;2023-02-15T10:34:04;5.60;58.20
3256;DHT22;1640;48.504;9.224;2023-02-15T10:36:53;5.70;58.20
3256;DHT22;1640;48.504;9.224;2023-02-15T10:39:29;5.70;61.90
3256;DHT22;1640;48.504;9.224;2023-02-15T10:42:08;6.00;64.50
3256;DHT22;1640;48.504;9.224;2023-02-15T10:44:45;6.10;64.30
3256;DHT22;1640;48.504;9.224;2023-02-15T10:47:29;6.20;65.30
3256;DHT22;1640;48.504;9.224;2023-02-15T10:50:20;6.30;64.30
3256;DHT22;1640;48.504;9.224;2023-02-15T10:53:05;6.40;65.90
3256;DHT22;1640;48.504;9.224;2023-02-15T10:55:46;6.60;66.30
3256;DHT22;1640;48.504;9.224;2023-02-15T10:58:22;6.70;67.20
3256;DHT22;1640;48.504;9.224;2023-02-15T11:00:54;6.80;66.20
3256;DHT22;1640;48.504;9.224;2023-02-15T11:03:39;7.00;67.60
3256;DHT22;1640;48.504;9.224;2023-02-15T11:06:13;7.10;68.90
3256;DHT22;1640;48.504;9.224;2023-02-15T11:08:44;7.20;69.60
3256;DHT22;1640;48.504;9.224;2023-02-15T11:11:15;7.30;68.60
3256;DHT22;1640;48.504;9.224;2023-02-15T11:13:49;7.40;69.50
3256;DHT22;1640;48.504;9.224;2023-02-15T11:16:22;7.50;70.50
3256;DHT22;1640;48.504;9.224;2023-02-15T11:18:53;7.60;69.80
3256;DHT22;1640;48.504;9.224;2023-02-15T11:21:26;7.70;69.60
3256;DHT22;1640;48.504;9.224;2023-02-15T11:23:55;7.70;69.60
3256;DHT22;1640;48.504;9.224;2023-02-15T11:26:28;7.80;70.00
3256;DHT22;1640;48.504;9.224;2023-02-15T11:28:59;7.90;70.90
3256;DHT22;1640;48.504;9.224;2023-02-15T11:31:37;8.10;71.20
3256;DHT22;1640;48.504;9.224;2023-02-15T11:34:13;8.30;71.90
3256;DHT22;1640;48.504;9.224;2023-02-15T11:36:45;8.50;73.20
3256;DHT22;1640;48.504;9.224;2023-02-15T11:39:16;8.60;73.50
3256;DHT22;1640;48.504;9.224;2023-02-15T11:41:48;8.70;74.10
3256;DHT22;1640;48.504;9.224;2023-02-15T11:44:21;8.80;74.10
3256;DHT22;1640;48.504;9.224;2023-02-15T11:46:51;8.90;74.60
3256;DHT22;1640;48.504;9.224;2023-02-15T11:49:22;9.00;74.80
3256;DHT22;1640;48.504;9.224;2023-02-15T11:51:52;9.10;74.60
3256;DHT22;1640;48.504;9.224;2023-02-15T11:54:24;9.20;74.90
3256;DHT22;1640;48.504;9.224;2023-02-15T11:56:54;9.20;75.40
3256;DHT22;1640;48.504;9.224;2023-02-15T11:59:29;9.20;74.80
3256;DHT22;1640;48.504;9.224;2023-02-15T12:01:57;9.30;74.60
3256;DHT22;1640;48.504;9.224;2023-02-15T12:06:58;9.60;73.60
3256;DHT22;1640;48.504;9.224;2023-02-15T12:09:31;9.80;72.30
3256;DHT22;1640;48.504;9.224;2023-02-15T12:12:19;9.90;71.60
3256;DHT22;1640;48.504;9.224;2023-02-15T12:14:48;10.10;68.80
3256;DHT22;1640;48.504;9.224;2023-02-15T12:17:17;10.30;66.50
3256;DHT22;1640;48.504;9.224;2023-02-15T12:19:44;10.30;66.00
3256;DHT22;1640;48.504;9.224;2023-02-15T12:22:24;10.40;65.20
3256;DHT22;1640;48.504;9.224;2023-02-15T12:24:54;10.50;63.00
3256;DHT22;1640;48.504;9.224;2023-02-15T12:27:25;10.70;63.30
3256;DHT22;1640;48.504;9.224;2023-02-15T12:29:55;10.70;64.30
3256;DHT22;1640;48.504;9.224;2023-02-15T12:32:25;10.80;64.50
3256;DHT22;1640;48.504;9.224;2023-02-15T12:35:00;10.90;62.90
3256;DHT22;1640;48.504;9.224;2023-02-15T12:37:31;11.10;61.40
3256;DHT22;1640;48.504;9.224;2023-02-15T12:40:02;11.20;60.60
3256;DHT22;1640;48.504;9.224;2023-02-15T12:42:45;11.20;58.60
3256;DHT22;1640;48.504;9.224;2023-02-15T12:45:26;11.30;58.80
3256;DHT22;1640;48.504;9.224;2023-02-15T12:48:09;11.50;57.00
3256;DHT22;1640;48.504;9.224;2023-02-15T12:50:37;11.50;56.70
3256;DHT22;1640;48.504;9.224;2023-02-15T12:53:12;11.50;57.40
3256;DHT22;1640;48.504;9.224;2023-02-15T12:55:49;11.60;56.90
3256;DHT22;1640;48.504;9.224;2023-02-15T12:58:19;11.70;56.50
3256;DHT22;1640;48.504;9.224;2023-02-15T13:00:47;11.80;57.00
3256;DHT22;1640;48.504;9.224;2023-02-15T13:03:19;12.00;56.60
3256;DHT22;1640;48.504;9.224;2023-02-15T13:05:50;12.10;54.70
3256;DHT22;1640;48.504;9.224;2023-02-15T13:08:22;12.10;53.70
3256;DHT22;1640;48.504;9.224;2023-02-15T13:10:56;12.20;53.50
3256;DHT22;1640;48.504;9.224;2023-02-15T13:13:26;12.20;51.40
3256;DHT22;1640;48.504;9.224;2023-02-15T13:15:58;12.30;50.10
3256;DHT22;1640;48.504;9.224;2023-02-15T13:18:30;12.40;49.80
3256;DHT22;1640;48.504;9.224;2023-02-15T13:21:04;12.50;48.00
3256;DHT22;1640;48.504;9.224;2023-02-15T13:23:34;12.50;47.10
3256;DHT22;1640;48.504;9.224;2023-02-15T13:26:04;12.60;47.10
3256;DHT22;1640;48.504;9.224;2023-02-15T13:28:38;12.60;44.80
3256;DHT22;1640;48.504;9.224;2023-02-15T13:31:12;12.40;45.10
3256;DHT22;1640;48.504;9.224;2023-02-15T13:36:16;12.70;49.80
3256;DHT22;1640;48.504;9.224;2023-02-15T13:39:00;12.50;50.50
3256;DHT22;1640;48.504;9.224;2023-02-15T13:41:33;12.60;51.30
3256;DHT22;1640;48.504;9.224;2023-02-15T13:44:09;12.80;52.50
3256;DHT22;1640;48.504;9.224;2023-02-15T13:46:48;12.70;53.10
3256;DHT22;1640;48.504;9.224;2023-02-15T13:49:30;12.70;52.80
3256;DHT22;1640;48.504;9.224;2023-02-15T13:52:04;12.70;50.20
3256;DHT22;1640;48.504;9.224;2023-02-15T13:54:58;12.70;51.60
3256;DHT22;1640;48.504;9.224;2023-02-15T13:57:44;12.60;52.40
3256;DHT22;1640;48.504;9.224;2023-02-15T14:00:22;12.50;54.00
3256;DHT22;1640;48.504;9.224;2023-02-15T14:03:14;12.40;52.90
3256;DHT22;1640;48.504;9.224;2023-02-15T14:06:00;12.40;53.90
3256;DHT22;1640;48.504;9.224;2023-02-15T14:08:43;12.30;54.00
3256;DHT22;1640;48.504;9.224;2023-02-15T14:11:19;12.40;52.70
3256;DHT22;1640;48.504;9.224;2023-02-15T14:16:43;12.30;54.40
3256;DHT22;1640;48.504;9.224;2023-02-15T14:19:18;12.40;54.00
3256;DHT22;1640;48.504;9.224;2023-02-15T14:21:51;12.50;53.90
3256;DHT22;1640;48.504;9.224;2023-02-15T14:24:29;12.60;53.50
3256;DHT22;1640;48.504;9.224;2023-02-15T14:27:07;12.70;53.50
3256;DHT22;1640;48.504;9.224;2023-02-15T14:29:46;12.70;52.80
3256;DHT22;1640;48.504;9.224;2023-02-15T14:32:18;12.70;52.10
3256;DHT22;1640;48.504;9.224;2023-02-15T14:34:49;12.60;51.80
3256;DHT22;1640;48.504;9.224;2023-02-15T14:37:21;12.60;52.50
3256;DHT22;1640;48.504;9.224;2023-02-15T14:39:54;12.70;51.40
3256;DHT22;1640;48.504;9.224;2023-02-15T14:42:45;12.60;51.20
3256;DHT22;1640;48.504;9.224;2023-02-15T14:45:20;12.50;51.00
3256;DHT22;1640;48.504;9.224;2023-02-15T14:47:56;12.60;51.00
3256;DHT22;1640;48.504;9.224;2023-02-15T14:50:41;12.60;50.10
3256;DHT22;1640;48.504;9.224;2023-02-15T14:53:17;12.60;49.80
3256;DHT22;1640;48.504;9.224;2023-02-15T14:55:44;12.70;48.70
3256;DHT22;1640;48.504;9.224;2023-02-15T14:58:13;12.70;48.00
3256;DHT22;1640;48.504;9.224;2023-02-15T15:00:41;12.70;45.90
3256;DHT22;1640;48.504;9.224;2023-02-15T15:03:20;12.60;44.10
3256;DHT22;1640;48.504;9.224;2023-02-15T15:05:53;12.50;43.30
3256;DHT22;1640;48.504;9.224;2023-02-15T15:08:26;12.50;42.90
3256;DHT22;1640;48.504;9.224;2023-02-15T15:10:56;12.50;43.60
3256;DHT22;1640;48.504;9.224;2023-02-15T15:13:55;12.50;43.20
3256;DHT22;1640;48.504;9.224;2023-02-15T15:19:12;12.40;42.90
3256;DHT22;1640;48.504;9.224;2023-02-15T15:21:55;12.50;43.60
3256;DHT22;1640;48.504;9.224;2023-02-15T15:24:46;12.50;43.70
3256;DHT22;1640;48.504;9.224;2023-02-15T15:27:42;12.40;43.30
3256;DHT22;1640;48.504;9.224;2023-02-15T15:36:26;12.40;43.60
3256;DHT22;1640;48.504;9.224;2023-02-15T15:39:06;12.40;44.10
3256;DHT22;1640;48.504;9.224;2023-02-15T15:41:41;12.30;44.20
3256;DHT22;1640;48.504;9.224;2023-02-15T15:47:40;12.20;44.70
3256;DHT22;1640;48.504;9.224;2023-02-15T15:50:17;12.30;45.10
3256;DHT22;1640;48.504;9.224;2023-02-15T15:52:49;12.20;45.60
3256;DHT22;1640;48.504;9.224;2023-02-15T15:55:20;12.10;46.60
3256;DHT22;1640;48.504;9.224;2023-02-15T15:57:51;12.10;47.10
3256;DHT22;1640;48.504;9.224;2023-02-15T16:00:33;12.00;47.80
3256;DHT22;1640;48.504;9.224;2023-02-15T16:03:01;11.90;48.50
3256;DHT22;1640;48.504;9.224;2023-02-15T16:05:36;11.80;49.40
3256;DHT22;1640;48.504;9.224;2023-02-15T16:08:04;11.70;50.20
3256;DHT22;1640;48.504;9.224;2023-02-15T16:10:33;11.70;50.90
3256;DHT22;1640;48.504;9.224;2023-02-15T16:13:05;11.50;51.80
3256;DHT22;1640;48.504;9.224;2023-02-15T16:15:35;11.40;53.20
3256;DHT22;1640;48.504;9.224;2023-02-15T16:18:04;11.40;54.70
3256;DHT22;1640;48.504;9.224;2023-02-15T16:20:34;11.50;56.10
3256;DHT22;1640;48.504;9.224;2023-02-15T16:23:16;11.40;56.60
3256;DHT22;1640;48.504;9.224;2023-02-15T16:25:56;11.10;57.50
3256;DHT22;1640;48.504;9.224;2023-02-15T16:28:26;10.90;58.90
3256;DHT22;1640;48.504;9.224;2023-02-15T16:31:06;10.60;60.10
3256;DHT22;1640;48.504;9.224;2023-02-15T16:33:35;10.30;59.90
3256;DHT22;1640;48.504;9.224;2023-02-15T16:36:04;10.20;60.70
3256;DHT22;1640;48.504;9.224;2023-02-15T16:39:07;10.00;61.30
3256;DHT22;1640;48.504;9.224;2023-02-15T16:41:35;9.70;61.70
3256;DHT22;1640;48.504;9.224;2023-02-15T16:44:06;9.50;62.40
3256;DHT22;1640;48.504;9.224;2023-02-15T16:46:39;9.40;63.30
3256;DHT22;1640;48.504;9.224;2023-02-15T16:49:14;9.20;63.90
3256;DHT22;1640;48.504;9.224;2023-02-15T16:51:43;9.00;64.60
3256;DHT22;1640;48.504;9.224;2023-02-15T16:54:19;8.90;64.90
3256;DHT22;1640;48.504;9.224;2023-02-15T16:56:48;8.80;65.30
3256;DHT22;1640;48.504;9.224;2023-02-15T16:59:27;8.70;65.90
3256;DHT22;1640;48.504;9.224;2023-02-15T17:01:56;8.60;66.30
3256;DHT22;1640;48.504;9.224;2023-02-15T17:04:29;8.40;66.90
3256;DHT22;1640;48.504;9.224;2023-02-15T17:07:00;8.20;66.70
3256;DHT22;1640;48.504;9.224;2023-02-15T17:09:29;8.00;67.30
3256;DHT22;1640;48.504;9.224;2023-02-15T17:11:56;7.80;67.90